Flood From: 19-02-2018 06:00 Until: 20-02-2018 06:00 warning for: Flood Level: Yellow info button

Although rather usual in this region, locally or potentially dangerous phenomena are expected. (such as local winds, summer thunderstorms, rising streams or high waves) Be aware and pay attention to the latest weather updates, especially if you carry out activities exposed to weather or close to a stream or shoreline. 


Meteo18 Weather Cam more information Meteo18 Weather Cam


Thunder radar more information blitzortung!


Rain radar more information rain snow radar


Visit our other weather sites:

Template documentation
and downloads

And another site



Weather Underground History page Text

Daily Summary for April 21, 2017 Units:  Metric    English   Both
« Previous Day
Next Day »
Daily Weekly Monthly Yearly Custom
  High: Low: Average:
Temperature: -17.8 °C -16.7 °C -12.4 °C
Dew Point: -17.8 °C -19.7 °C -18.7 °C
Humidity: Humidity % 28 % 47 %
Wind Speed: 0 km/h 0 km/h 8.7 km/h
Wind Gust: 0 km/h - -
Wind:- - SE
Pressure: 0 hPa 34841.9 hPa -
Precipitation: 0 mm    
Historical Graphs
 
 
Tabular Data for April 21, 2017
Time Temperature Dew Point Pressure Wind Wind Speed Wind Gust Humidity Rainfall Rate (Hourly)
-17.8 °C -17.8 °C 0 hPa Calm     Humidity % 0 mm
00:02 -14.1 °C -19 °C 34967.2 hPa NNE 25.9 km/h 33.6 km/h 53 % 0 mm
00:12 -14.1 °C -18.9 °C 34967.2 hPa North 12.9 km/h 33.6 km/h 54 % 0 mm
00:17 -14.2 °C -18.9 °C 34967.2 hPa NE 2.6 km/h 33.6 km/h 54 % 0 mm
00:22 -14.3 °C -19 °C 34980.8 hPa NNE 5.1 km/h 33.6 km/h 55 % 0 mm
00:27 -14.4 °C -18.9 °C 34980.8 hPa NW 5.1 km/h 33.6 km/h 56 % 0 mm
00:32 -14.6 °C -18.9 °C 34980.8 hPa NNW 7.7 km/h 31.1 km/h 57 % 0 mm
00:37 -14.6 °C -19 °C 34980.8 hPa NNE 5.1 km/h 31.1 km/h 57 % 0 mm
00:42 -14.7 °C -18.9 °C 34980.8 hPa North 5.1 km/h 20.8 km/h 58 % 0 mm
00:52 -14.8 °C -19.1 °C 34980.8 hPa NE 10.3 km/h 25.9 km/h 58 % 0 mm
00:57 -14.9 °C -19 °C 34980.8 hPa NNE 5.1 km/h 25.9 km/h 59 % 0 mm
01:02 -14.9 °C -19.1 °C 34980.8 hPa North 10.3 km/h 25.9 km/h 59 % 0 mm
01:07 -15 °C -19.1 °C 34980.8 hPa North 5.1 km/h 18.2 km/h 59 % 0 mm
01:12 -15.1 °C -19.1 °C 34980.8 hPa Calm   18.2 km/h 60 % 0 mm
01:17 -15.2 °C -19 °C 34980.8 hPa North 5.1 km/h 20.8 km/h 61 % 0 mm
01:22 -15.2 °C -19 °C 34980.8 hPa NE 5.1 km/h 20.8 km/h 61 % 0 mm
01:27 -15.2 °C -19.1 °C 34980.8 hPa NW 2.6 km/h 15.6 km/h 61 % 0 mm
01:32 -15.2 °C -19.1 °C 34980.8 hPa NW 2.6 km/h 15.6 km/h 61 % 0 mm
01:37 -15.2 °C -19.1 °C 34980.8 hPa NNW 7.7 km/h 15.6 km/h 61 % 0 mm
01:42 -15.3 °C -19 °C 34980.8 hPa NNW 2.6 km/h 15.6 km/h 62 % 0 mm
01:47 -15.3 °C -19.2 °C 34980.8 hPa North 12.9 km/h 15.6 km/h 61 % 0 mm
01:57 -15.3 °C -19 °C 34980.8 hPa North 5.1 km/h 15.6 km/h 62 % 0 mm
02:02 -15.4 °C -19.1 °C 34980.8 hPa NNW 5.1 km/h 15.6 km/h 62 % 0 mm
02:07 -15.4 °C -19.1 °C 34980.8 hPa North 5.1 km/h 15.6 km/h 62 % 0 mm
02:12 -15.4 °C -19.1 °C 34980.8 hPa NNE 5.1 km/h 10.3 km/h 62 % 0 mm
02:22 -15.5 °C -19.2 °C 34967.2 hPa NE 2.6 km/h 10.3 km/h 62 % 0 mm
02:32 -15.5 °C -19.1 °C 34967.2 hPa NNW 7.7 km/h 10.3 km/h 63 % 0 mm
02:37 -15.6 °C -19.2 °C 34967.2 hPa NNE 5.1 km/h 7.7 km/h 62 % 0 mm
02:42 -15.7 °C -19.2 °C 34967.2 hPa Calm   7.7 km/h 63 % 0 mm
02:47 -15.7 °C -19.3 °C 34967.2 hPa NE 12.9 km/h 12.9 km/h 63 % 0 mm
02:52 -15.7 °C -19.2 °C 34967.2 hPa NNE 7.7 km/h 10.3 km/h 63 % 0 mm
02:57 -15.7 °C -19.2 °C 34967.2 hPa NW 5.1 km/h 12.9 km/h 63 % 0 mm
03:02 -15.7 °C -19.2 °C 34967.2 hPa NNW 5.1 km/h 12.9 km/h 64 % 0 mm
03:12 -15.7 °C -19.3 °C 34967.2 hPa North 7.7 km/h 12.9 km/h 63 % 0 mm
03:17 -15.8 °C -19.2 °C 34967.2 hPa NNW 10.3 km/h 18.2 km/h 64 % 0 mm
03:22 -15.9 °C -19.3 °C 34967.2 hPa North 12.9 km/h 18.2 km/h 64 % 0 mm
03:32 -15.8 °C -19.2 °C 34967.2 hPa NW 7.7 km/h 18.2 km/h 64 % 0 mm
03:37 -15.8 °C -19.3 °C 34967.2 hPa North 7.7 km/h 15.6 km/h 63 % 0 mm
03:42 -15.8 °C -19.2 °C 34967.2 hPa North 5.1 km/h 15.6 km/h 64 % 0 mm
03:47 -15.9 °C -19.3 °C 34967.2 hPa NW 2.6 km/h 18.2 km/h 64 % 0 mm
03:52 -15.9 °C -19.4 °C 34957.1 hPa Calm   18.2 km/h 64 % 0 mm
03:57 -16 °C -19.4 °C 34957.1 hPa Calm   12.9 km/h 64 % 0 mm
04:02 -16.1 °C -19.3 °C 34957.1 hPa North 7.7 km/h 12.9 km/h 65 % 0 mm
04:12 -16.2 °C -19.5 °C 34957.1 hPa Calm   10.3 km/h 65 % 0 mm
04:17 -16.3 °C -19.4 °C 34957.1 hPa NW 2.6 km/h 7.7 km/h 66 % 0 mm
04:27 -16.2 °C -19.4 °C 34957.1 hPa WNW 5.1 km/h 5.1 km/h 66 % 0 mm
04:32 -16.3 °C -19.5 °C 34957.1 hPa WNW 5.1 km/h 5.1 km/h 66 % 0 mm
04:42 -16.2 °C -19.4 °C 34957.1 hPa NW 2.6 km/h 5.1 km/h 65 % 0 mm
04:47 -16.1 °C -19.4 °C 34957.1 hPa NW 2.6 km/h 5.1 km/h 64 % 0 mm
04:52 -16.2 °C -19.4 °C 34957.1 hPa NW 5.1 km/h 5.1 km/h 65 % 0 mm
04:57 -16.1 °C -19.4 °C 34957.1 hPa WNW 5.1 km/h 5.1 km/h 64 % 0 mm
05:12 -16 °C -19.6 °C 34957.1 hPa North 7.7 km/h 7.7 km/h 63 % 0 mm
05:17 -16 °C -19.6 °C 34957.1 hPa NW 2.6 km/h 10.3 km/h 63 % 0 mm
05:22 -16.1 °C -19.4 °C 34957.1 hPa NNW 2.6 km/h 10.3 km/h 64 % 0 mm
05:32 -16.2 °C -19.6 °C 34957.1 hPa North 5.1 km/h 10.3 km/h 64 % 0 mm
05:42 -16.3 °C -19.6 °C 34957.1 hPa Calm   7.7 km/h 65 % 0 mm
05:47 -16.3 °C -19.6 °C 34957.1 hPa North 5.1 km/h 5.1 km/h 65 % 0 mm
05:52 -16.3 °C -19.6 °C 34957.1 hPa NNE 2.6 km/h 5.1 km/h 65 % 0 mm
06:02 -16.4 °C -19.6 °C 34957.1 hPa Calm   5.1 km/h 66 % 0 mm
06:12 -16.4 °C -19.6 °C 34957.1 hPa NNW 5.1 km/h 10.3 km/h 66 % 0 mm
06:17 -16.3 °C -19.6 °C 34946.9 hPa NNW 2.6 km/h 10.3 km/h 65 % 0 mm
06:22 -16.3 °C -19.6 °C 34946.9 hPa NNW 5.1 km/h 10.3 km/h 65 % 0 mm
06:27 -16.3 °C -19.6 °C 34946.9 hPa NNW 2.6 km/h 7.7 km/h 65 % 0 mm
06:32 -16.3 °C -19.6 °C 34946.9 hPa NNW 5.1 km/h 7.7 km/h 65 % 0 mm
06:37 -16.4 °C -19.6 °C 34957.1 hPa Calm   7.7 km/h 66 % 0 mm
06:42 -16.6 °C -19.7 °C 34946.9 hPa Calm   7.7 km/h 67 % 0 mm
06:47 -16.7 °C -19.6 °C 34957.1 hPa North 5.1 km/h 10.3 km/h 68 % 0 mm
06:52 -16.6 °C -19.7 °C 34946.9 hPa NNW 2.6 km/h 10.3 km/h 67 % 0 mm
06:57 -16.6 °C -19.7 °C 34946.9 hPa NNE 2.6 km/h 10.3 km/h 67 % 0 mm
07:02 -16.6 °C -19.6 °C 34957.1 hPa North 7.7 km/h 10.3 km/h 67 % 0 mm
07:12 -16.4 °C -19.6 °C 34957.1 hPa Calm   7.7 km/h 66 % 0 mm
07:22 -16.2 °C -19.5 °C 34957.1 hPa NNW 2.6 km/h 7.7 km/h 65 % 0 mm
07:32 -16.2 °C -19.4 °C 34957.1 hPa Calm   7.7 km/h 65 % 0 mm
07:42 -16 °C -19.3 °C 34957.1 hPa North 2.6 km/h 7.7 km/h 65 % 0 mm
07:47 -16 °C -19.3 °C 34957.1 hPa North 2.6 km/h 7.7 km/h 65 % 0 mm
07:52 -15.9 °C -19.3 °C 34957.1 hPa Calm   7.7 km/h 65 % 0 mm
07:57 -15.8 °C -19.1 °C 34957.1 hPa Calm   7.7 km/h 65 % 0 mm
08:02 -15.6 °C -18.9 °C 34957.1 hPa North 2.6 km/h 7.7 km/h 65 % 0 mm
08:12 -15.3 °C -18.9 °C 34967.2 hPa NNE 5.1 km/h 7.7 km/h 63 % 0 mm
08:17 -15.2 °C -18.8 °C 34967.2 hPa NNE 7.7 km/h 10.3 km/h 63 % 0 mm
08:22 -15.1 °C -18.8 °C 34967.2 hPa NNE 7.7 km/h 10.3 km/h 62 % 0 mm
08:32 -14.9 °C -18.8 °C 34967.2 hPa NNE 12.9 km/h 12.9 km/h 60 % 0 mm
08:42 -14.8 °C -19 °C 34967.2 hPa NNE 7.7 km/h 15.6 km/h 58 % 0 mm
08:47 -14.6 °C -18.8 °C 34967.2 hPa NNE 10.3 km/h 18.2 km/h 58 % 0 mm
08:52 -14.6 °C -19 °C 34967.2 hPa NE 10.3 km/h 18.2 km/h 57 % 0 mm
08:57 -14.6 °C -18.9 °C 34967.2 hPa NNE 12.9 km/h 20.8 km/h 57 % 0 mm
09:02 -14.3 °C -18.4 °C 34980.8 hPa NNE 7.7 km/h 20.8 km/h 59 % 0 mm
09:12 -14.1 °C -18.5 °C 34967.2 hPa ENE 15.6 km/h 20.8 km/h 57 % 0 mm
09:17 -14 °C -18.8 °C 34967.2 hPa NE 20.8 km/h 20.8 km/h 54 % 0 mm
09:22 -14 °C -18.8 °C 34967.2 hPa NE 20.8 km/h 20.8 km/h 54 % 0 mm
09:27 -13.9 °C -18.5 °C 34967.2 hPa NNE 18.2 km/h 28.5 km/h 56 % 0 mm
09:32 -13.8 °C -18.4 °C 34967.2 hPa North 10.3 km/h 28.5 km/h 55 % 0 mm
09:42 -13.6 °C -18.3 °C 34967.2 hPa NNE 7.7 km/h 25.9 km/h 55 % 0 mm
09:52 -13.4 °C -18.2 °C 34967.2 hPa NNE 18.2 km/h 20.8 km/h 54 % 0 mm
09:57 -13.2 °C -18.1 °C 34967.2 hPa NE 15.6 km/h 23.3 km/h 54 % 0 mm
10:02 -13.1 °C -18.1 °C 34980.8 hPa North 15.6 km/h 23.3 km/h 53 % 0 mm
10:12 -12.9 °C -18.4 °C 34980.8 hPa NE 20.8 km/h 20.8 km/h 50 % 0 mm
10:17 -12.8 °C -18.4 °C 34980.8 hPa NE 15.6 km/h 25.9 km/h 49 % 0 mm
10:22 -12.7 °C -18.7 °C 34980.8 hPa North 12.9 km/h 25.9 km/h 47 % 0 mm
10:32 -12.6 °C -18.2 °C 34980.8 hPa NNE 10.3 km/h 25.9 km/h 49 % 0 mm
10:42 -12.3 °C -18.1 °C 34980.8 hPa NE 7.7 km/h 28.5 km/h 48 % 0 mm
10:52 -12.3 °C -18.3 °C 34980.8 hPa ENE 18.2 km/h 28.5 km/h 47 % 0 mm
11:02 -12.1 °C -18.2 °C 34980.8 hPa NNE 7.7 km/h 31.1 km/h 46 % 0 mm
11:12 -11.8 °C -18.2 °C 34980.8 hPa NNW 12.9 km/h 31.1 km/h 45 % 0 mm
11:17 -11.6 °C -18.2 °C 34980.8 hPa NE 15.6 km/h 31.1 km/h 44 % 0 mm
11:22 -11.6 °C -18.5 °C 34980.8 hPa NNE 33.6 km/h 33.6 km/h 42 % 0 mm
11:32 -11.4 °C -18.5 °C 34980.8 hPa NE 15.6 km/h 38.8 km/h 41 % 0 mm
11:42 -11.3 °C -19 °C 34980.8 hPa NE 15.6 km/h 38.8 km/h 38 % 0 mm
11:52 -11.2 °C -18.9 °C 34967.2 hPa ENE 12.9 km/h 36.2 km/h 38 % 0 mm
12:02 -11.1 °C -19.4 °C 34967.2 hPa NE 5.1 km/h 41.4 km/h 35 % 0 mm
12:12 -10.7 °C -18.9 °C 34967.2 hPa NE 31.1 km/h 36.2 km/h 36 % 0 mm
12:17 -10.8 °C -18.6 °C 34967.2 hPa NNE 12.9 km/h 38.8 km/h 38 % 0 mm
12:22 -10.7 °C -18.4 °C 34967.2 hPa NE 10.3 km/h 44.1 km/h 38 % 0 mm
12:27 -10.7 °C -19.3 °C 34967.2 hPa ENE 12.9 km/h 44.1 km/h 34 % 0 mm
12:32 -10.5 °C -18.9 °C 34967.2 hPa NNE 23.3 km/h 44.1 km/h 35 % 0 mm
12:37 -10.4 °C -18.7 °C 34967.2 hPa ENE 10.3 km/h 44.1 km/h 36 % 0 mm
12:42 -10.4 °C -19.1 °C 34957.1 hPa NE 15.6 km/h 44.1 km/h 34 % 0 mm
12:47 -10.4 °C -18.8 °C 34957.1 hPa ESE 12.9 km/h 38.8 km/h 35 % 0 mm
12:52 -10.2 °C -18.7 °C 34957.1 hPa ENE 18.2 km/h 38.8 km/h 35 % 0 mm
12:57 -10.3 °C -18.5 °C 34957.1 hPa NNE 12.9 km/h 38.8 km/h 36 % 0 mm
13:02 -10.2 °C -18.4 °C 34957.1 hPa ENE 20.8 km/h 38.8 km/h 36 % 0 mm
13:07 -10.1 °C -18.6 °C 34957.1 hPa NNE 31.1 km/h 31.1 km/h 35 % 0 mm
13:12 -10.2 °C -18.4 °C 34957.1 hPa ENE 10.3 km/h 28.5 km/h 36 % 0 mm
13:17 -10.2 °C -19.3 °C 34957.1 hPa ENE 15.6 km/h 38.8 km/h 32 % 0 mm
13:22 -10.1 °C -18.3 °C 34957.1 hPa ENE 15.6 km/h 38.8 km/h 36 % 0 mm
13:27 -10.1 °C -18.7 °C 34946.9 hPa North 31.1 km/h 38.8 km/h 34 % 0 mm
13:32 -10.1 °C -19.2 °C 34946.9 hPa NE 18.2 km/h 38.8 km/h 32 % 0 mm
13:37 -10.1 °C -18.5 °C 34946.9 hPa NE 18.2 km/h 38.8 km/h 35 % 0 mm
13:42 -10 °C -18.7 °C 34946.9 hPa NNE 20.8 km/h 38.8 km/h 34 % 0 mm
13:52 -9.9 °C -19.1 °C 34946.9 hPa ENE 15.6 km/h 36.2 km/h 32 % 0 mm
13:57 -10.1 °C -19.2 °C 34946.9 hPa NE 15.6 km/h 36.2 km/h 32 % 0 mm
14:12 -9.8 °C -19.2 °C 34933.4 hPa ENE 10.3 km/h 36.2 km/h 31 % 0 mm
14:17 -9.8 °C -19.2 °C 34933.4 hPa NE 15.6 km/h 36.2 km/h 31 % 0 mm
14:22 -9.7 °C -18.9 °C 34933.4 hPa NW 2.6 km/h 36.2 km/h 32 % 0 mm
14:27 -9.6 °C -18.3 °C 34933.4 hPa ENE 12.9 km/h 44.1 km/h 34 % 0 mm
14:32 -9.6 °C -19 °C 34933.4 hPa NE 23.3 km/h 44.1 km/h 31 % 0 mm
14:42 -9.4 °C -18.6 °C 34933.4 hPa ENE 20.8 km/h 33.6 km/h 32 % 0 mm
14:47 -9.3 °C -18.8 °C 34923.2 hPa NNE 15.6 km/h 31.1 km/h 31 % 0 mm
14:52 -9.5 °C -19.4 °C 34923.2 hPa North 12.9 km/h 31.1 km/h 29 % 0 mm
14:57 -9.3 °C -18.8 °C 34923.2 hPa East 20.8 km/h 28.5 km/h 31 % 0 mm
15:02 -9.3 °C -19.6 °C 34923.2 hPa SE 5.1 km/h 28.5 km/h 28 % 0 mm
15:07 -9.3 °C -18.7 °C 34923.2 hPa ENE 15.6 km/h 25.9 km/h 31 % 0 mm
15:12 -9.3 °C -19.2 °C 34923.2 hPa ENE 12.9 km/h 25.9 km/h 29 % 0 mm
15:17 -9.3 °C -18.6 °C 34909.7 hPa NNE 20.8 km/h 31.1 km/h 32 % 0 mm
15:22 -9.1 °C -18.8 °C 34909.7 hPa East 20.8 km/h 31.1 km/h 30 % 0 mm
15:27 -9.2 °C -19.2 °C 34909.7 hPa ENE 10.3 km/h 36.2 km/h 29 % 0 mm
15:32 -9.1 °C -18.8 °C 34909.7 hPa NNE 10.3 km/h 36.2 km/h 30 % 0 mm
15:37 -9.1 °C -18.3 °C 34909.7 hPa ENE 20.8 km/h 28.5 km/h 32 % 0 mm
15:42 -9 °C -18.3 °C 34909.7 hPa ENE 10.3 km/h 28.5 km/h 32 % 0 mm
15:47 -9 °C -18.7 °C 34899.5 hPa SE 2.6 km/h 31.1 km/h 30 % 0 mm
15:52 -8.9 °C -18.4 °C 34899.5 hPa East 5.1 km/h 31.1 km/h 31 % 0 mm
15:57 -8.9 °C -18.7 °C 34899.5 hPa East 10.3 km/h 31.1 km/h 30 % 0 mm
16:02 -8.9 °C -18.7 °C 34899.5 hPa NE 10.3 km/h 31.1 km/h 30 % 0 mm
16:12 -8.9 °C -18.7 °C 34889.3 hPa ENE 12.9 km/h 25.9 km/h 30 % 0 mm
16:17 -8.8 °C -18.6 °C 34889.3 hPa NNE 18.2 km/h 28.5 km/h 30 % 0 mm
16:22 -8.9 °C -19.2 °C 34889.3 hPa Calm   28.5 km/h 28 % 0 mm
16:27 -8.9 °C -18.4 °C 34889.3 hPa NNE 23.3 km/h 33.6 km/h 31 % 0 mm
16:32 -8.8 °C -18.3 °C 34889.3 hPa Calm   33.6 km/h 31 % 0 mm
16:37 -8.7 °C -18.8 °C 34889.3 hPa Calm   33.6 km/h 29 % 0 mm
16:42 -8.7 °C -18.8 °C 34875.8 hPa NNE 12.9 km/h 33.6 km/h 29 % 0 mm
16:47 -8.8 °C -18.6 °C 34875.8 hPa NE 12.9 km/h 33.6 km/h 30 % 0 mm
16:52 -8.7 °C -17.9 °C 34875.8 hPa NE 5.1 km/h 33.6 km/h 32 % 0 mm
17:02 -8.6 °C -18.7 °C 34875.8 hPa NNE 2.6 km/h 33.6 km/h 29 % 0 mm
17:12 -8.7 °C -18.8 °C 34875.8 hPa ENE 12.9 km/h 23.3 km/h 29 % 0 mm
17:17 -8.8 °C -18.6 °C 34875.8 hPa North 5.1 km/h 28.5 km/h 30 % 0 mm
17:22 -8.8 °C -18.6 °C 34875.8 hPa North 7.7 km/h 28.5 km/h 30 % 0 mm
17:32 -8.7 °C -18.4 °C 34865.6 hPa ENE 7.7 km/h 28.5 km/h 30 % 0 mm
17:37 -8.7 °C -18.4 °C 34865.6 hPa East 15.6 km/h 23.3 km/h 30 % 0 mm
17:42 -8.6 °C -18.1 °C 34865.6 hPa ENE 15.6 km/h 23.3 km/h 31 % 0 mm
17:52 -8.7 °C -18.5 °C 34865.6 hPa ENE 7.7 km/h 23.3 km/h 30 % 0 mm
18:02 -8.7 °C -18.4 °C 34865.6 hPa NE 12.9 km/h 28.5 km/h 30 % 0 mm
18:07 -8.6 °C -17.9 °C 34865.6 hPa ENE 5.1 km/h 28.5 km/h 32 % 0 mm
18:12 -8.7 °C -18.7 °C 34865.6 hPa Calm   28.5 km/h 29 % 0 mm
18:17 -8.7 °C -18.4 °C 34865.6 hPa NE 20.8 km/h 28.5 km/h 30 % 0 mm
18:22 -8.7 °C -18.4 °C 34865.6 hPa North 7.7 km/h 28.5 km/h 30 % 0 mm
18:32 -8.7 °C -18.4 °C 34852.1 hPa ENE 15.6 km/h 25.9 km/h 30 % 0 mm
18:37 -8.8 °C -18.3 °C 34852.1 hPa NE 12.9 km/h 25.9 km/h 31 % 0 mm
18:42 -8.8 °C -18.1 °C 34852.1 hPa NNW 5.1 km/h 25.9 km/h 32 % 0 mm
18:52 -8.7 °C -17.9 °C 34852.1 hPa NE 10.3 km/h 23.3 km/h 32 % 0 mm
18:57 -8.7 °C -18.2 °C 34852.1 hPa NE 7.7 km/h 18.2 km/h 31 % 0 mm
19:02 -8.8 °C -18.3 °C 34852.1 hPa NNE 5.1 km/h 18.2 km/h 31 % 0 mm
19:07 -8.8 °C -18.3 °C 34852.1 hPa NE 15.6 km/h 20.8 km/h 31 % 0 mm
19:12 -8.8 °C -18.6 °C 34852.1 hPa NE 5.1 km/h 20.8 km/h 30 % 0 mm
19:17 -8.8 °C -18.6 °C 34852.1 hPa NNE 7.7 km/h 20.8 km/h 30 % 0 mm
19:22 -8.8 °C -18.6 °C 34852.1 hPa NNE 10.3 km/h 20.8 km/h 30 % 0 mm
19:27 -8.9 °C -18.4 °C 34852.1 hPa NE 15.6 km/h 18.2 km/h 31 % 0 mm
19:32 -9 °C -18.5 °C 34852.1 hPa NE 10.3 km/h 18.2 km/h 31 % 0 mm
19:42 -9 °C -18.3 °C 34852.1 hPa NE 2.6 km/h 20.8 km/h 32 % 0 mm
19:52 -9.1 °C -18.3 °C 34852.1 hPa NE 7.7 km/h 15.6 km/h 32 % 0 mm
19:57 -9.2 °C -18.2 °C 34841.9 hPa NNE 5.1 km/h 15.6 km/h 33 % 0 mm
20:02 -9.2 °C -18.4 °C 34852.1 hPa NE 5.1 km/h 15.6 km/h 32 % 0 mm
20:07 -9.3 °C -18.3 °C 34841.9 hPa NNE 7.7 km/h 15.6 km/h 33 % 0 mm
20:12 -9.3 °C -18.3 °C 34841.9 hPa NE 5.1 km/h 15.6 km/h 33 % 0 mm
20:17 -9.3 °C -18.3 °C 34841.9 hPa NNE 7.7 km/h 10.3 km/h 33 % 0 mm
20:22 -9.4 °C -18.2 °C 34841.9 hPa NE 7.7 km/h 10.3 km/h 34 % 0 mm
20:32 -9.8 °C -18.1 °C 34841.9 hPa NE 2.6 km/h 10.3 km/h 36 % 0 mm
20:37 -9.9 °C -18.2 °C 34841.9 hPa NNE 7.7 km/h 10.3 km/h 36 % 0 mm
20:42 -10.1 °C -18.5 °C 34841.9 hPa NE 7.7 km/h 10.3 km/h 35 % 0 mm
20:52 -10.3 °C -18.3 °C 34841.9 hPa NNE 7.7 km/h 10.3 km/h 37 % 0 mm
20:57 -10.5 °C -18.1 °C 34841.9 hPa Calm   10.3 km/h 39 % 0 mm
21:02 -10.7 °C -18.1 °C 34841.9 hPa Calm   10.3 km/h 40 % 0 mm
21:07 -10.8 °C -18.1 °C 34841.9 hPa Calm   10.3 km/h 40 % 0 mm
21:17 -11 °C -18.2 °C 34841.9 hPa NNW 2.6 km/h 5.1 km/h 41 % 0 mm
21:22 -11.2 °C -18.1 °C 34852.1 hPa NNW 2.6 km/h 5.1 km/h 42 % 0 mm
21:32 -11.4 °C -18.2 °C 34841.9 hPa Calm   10.3 km/h 43 % 0 mm
21:37 -11.5 °C -18.1 °C 34841.9 hPa NNW 2.6 km/h 10.3 km/h 44 % 0 mm
21:42 -11.6 °C -18.1 °C 34852.1 hPa NNW 2.6 km/h 10.3 km/h 44 % 0 mm
21:52 -11.7 °C -18.3 °C 34852.1 hPa NNW 2.6 km/h 7.7 km/h 44 % 0 mm
21:57 -11.8 °C -18.2 °C 34852.1 hPa Calm   5.1 km/h 45 % 0 mm
22:02 -11.8 °C -18.2 °C 34852.1 hPa NNW 2.6 km/h 5.1 km/h 45 % 0 mm
22:07 -11.9 °C -18.1 °C 34852.1 hPa NNW 2.6 km/h 5.1 km/h 46 % 0 mm
22:12 -11.9 °C -18.1 °C 34852.1 hPa NNW 5.1 km/h 5.1 km/h 46 % 0 mm
22:17 -11.9 °C -17.9 °C 34852.1 hPa North 5.1 km/h 5.1 km/h 47 % 0 mm
22:22 -12.1 °C -17.9 °C 34852.1 hPa NNW 2.6 km/h 5.1 km/h 48 % 0 mm
22:32 -12.2 °C -17.8 °C 34852.1 hPa NNW 2.6 km/h 10.3 km/h 49 % 0 mm
22:37 -12.1 °C -17.8 °C 34852.1 hPa NNW 5.1 km/h 7.7 km/h 49 % 0 mm
22:42 -12.1 °C -17.8 °C 34852.1 hPa NNW 5.1 km/h 7.7 km/h 49 % 0 mm
22:47 -12.2 °C -17.7 °C 34852.1 hPa NNW 2.6 km/h 7.7 km/h 50 % 0 mm
22:52 -12.3 °C -17.8 °C 34852.1 hPa NNW 2.6 km/h 7.7 km/h 50 % 0 mm
22:57 -12.3 °C -17.8 °C 34852.1 hPa NNW 2.6 km/h 7.7 km/h 50 % 0 mm
23:02 -12.3 °C -17.7 °C 34852.1 hPa Calm   7.7 km/h 51 % 0 mm
23:12 -12.4 °C -17.7 °C 34852.1 hPa NW 5.1 km/h 7.7 km/h 52 % 0 mm
23:17 -12.4 °C -17.7 °C 34852.1 hPa NNE 5.1 km/h 7.7 km/h 52 % 0 mm
23:22 -12.4 °C -17.7 °C 34841.9 hPa North 2.6 km/h 7.7 km/h 52 % 0 mm
23:32 -12.4 °C -17.8 °C 34841.9 hPa North 5.1 km/h 10.3 km/h 51 % 0 mm
23:42 -12.5 °C -17.7 °C 34852.1 hPa NE 7.7 km/h 10.3 km/h 52 % 0 mm
23:47 -12.6 °C -17.8 °C 34852.1 hPa NE 10.3 km/h 12.9 km/h 52 % 0 mm
23:52 -12.6 °C -17.8 °C 34852.1 hPa NNW 7.7 km/h 12.9 km/h 52 % 0 mm
23:57 -12.6 °C -17.8 °C 34852.1 hPa NE 10.3 km/h 12.9 km/h 52 % 0 mm
Meteo18
Compliments of Weather Underground - 4 mb

Script developed by  Jim McMurry - jmcmurry@mwt.net Adapted for the template by  Wim van der Kuil - Leuven-Template.eu

You find our weather info also at:

European Weather Network

Weather Underground

Equipment we use:

Weather-station
Davis Vue

Weather-program
Meteobridge

Weather-server
Raspberry PI 2 B+

Provider
1 and 1

Davis Vue

Meteobridge

Raspberry PI 2 B+

1 and 1